createdAt,value
2023-01-06T00:01:15.587Z,60.27
2023-01-06T00:03:43.480Z,58.80
2023-01-06T00:06:12.633Z,59.27
2023-01-06T00:08:41.787Z,55.77
2023-01-06T00:11:10.425Z,55.07
2023-01-06T00:13:38.601Z,57.17
2023-01-06T00:16:07.802Z,54.10
2023-01-06T00:18:35.598Z,56.57
2023-01-06T00:21:03.645Z,56.97
2023-01-06T00:23:32.272Z,55.47
2023-01-06T00:26:02.289Z,55.43
2023-01-06T00:28:30.114Z,52.27
2023-01-06T00:30:57.889Z,53.63
2023-01-06T00:33:26.008Z,58.50
2023-01-06T00:35:53.724Z,53.03
2023-01-06T00:38:22.568Z,52.80
2023-01-06T00:40:50.225Z,51.53
2023-01-06T00:43:19.280Z,56.90
2023-01-06T00:45:46.959Z,55.20
2023-01-06T00:48:14.974Z,56.83
2023-01-06T00:50:42.724Z,55.60
2023-01-06T00:53:10.389Z,56.20
2023-01-06T00:55:38.107Z,56.00
2023-01-06T00:58:08.175Z,52.70
2023-01-06T01:00:37.262Z,51.77
2023-01-06T01:03:05.059Z,54.07
2023-01-06T01:08:29.820Z,53.00
2023-01-06T01:11:03.234Z,55.03
2023-01-06T01:13:31.066Z,54.23
2023-01-06T01:16:04.922Z,56.83
2023-01-06T01:18:32.762Z,53.90
2023-01-06T01:21:00.476Z,53.57
2023-01-06T01:23:28.409Z,54.73
2023-01-06T01:25:56.513Z,56.73
2023-01-06T01:28:24.339Z,51.70
2023-01-06T01:31:01.474Z,53.87
2023-01-06T01:33:30.267Z,56.73
2023-01-06T01:35:58.207Z,55.87
2023-01-06T01:38:26.733Z,52.17
2023-01-06T01:40:54.399Z,51.70
2023-01-06T01:43:22.292Z,52.90
2023-01-06T01:45:52.023Z,48.47
2023-01-06T01:48:26.895Z,46.73
2023-01-06T01:50:55.790Z,49.93
2023-01-06T01:53:25.314Z,50.10
2023-01-06T01:55:54.747Z,50.17
2023-01-06T01:58:26.029Z,47.67
2023-01-06T02:00:54.134Z,50.07
2023-01-06T02:03:23.947Z,44.50
2023-01-06T02:05:54.259Z,44.83
2023-01-06T02:08:24.680Z,48.97
2023-01-06T02:10:52.357Z,45.90
2023-01-06T02:13:20.039Z,46.57
2023-01-06T02:15:48.032Z,46.10
2023-01-06T02:18:30.525Z,44.40
2023-01-06T02:21:08.276Z,39.47
2023-01-06T02:23:58.300Z,38.57
2023-01-06T02:27:09.978Z,39.70
2023-01-06T02:30:02.192Z,34.27
2023-01-06T02:32:38.512Z,34.80
2023-01-06T02:35:23.081Z,36.37
2023-01-06T02:38:00.161Z,38.63
2023-01-06T02:40:38.226Z,34.80
2023-01-06T02:43:13.532Z,35.00
2023-01-06T02:45:50.069Z,34.73
2023-01-06T02:48:25.911Z,35.03
2023-01-06T02:50:57.094Z,33.47
2023-01-06T02:53:26.823Z,36.37
2023-01-06T02:55:56.535Z,32.70
2023-01-06T02:58:28.577Z,29.27
2023-01-06T03:00:59.195Z,29.17
2023-01-06T03:03:31.818Z,32.03
2023-01-06T03:06:04.762Z,30.47
2023-01-06T03:08:32.957Z,28.63
2023-01-06T03:11:01.227Z,29.47
2023-01-06T03:13:34.959Z,31.13
2023-01-06T03:16:02.894Z,31.07
2023-01-06T03:18:32.215Z,30.43
2023-01-06T03:21:03.475Z,31.23
2023-01-06T03:23:31.216Z,28.97
2023-01-06T03:25:58.973Z,29.13
2023-01-06T03:28:26.706Z,28.13
2023-01-06T03:30:57.920Z,32.23
2023-01-06T03:33:28.217Z,30.10
2023-01-06T03:36:02.371Z,28.60
2023-01-06T03:38:42.758Z,28.37
2023-01-06T03:41:19.223Z,27.60
2023-01-06T03:43:53.318Z,25.80
2023-01-06T03:46:26.441Z,27.70
2023-01-06T03:48:59.351Z,26.73
2023-01-06T03:51:39.544Z,26.50
2023-01-06T03:54:09.665Z,27.07
2023-01-06T03:56:41.514Z,27.60
2023-01-06T03:59:13.761Z,24.23
2023-01-06T04:01:43.472Z,25.43
2023-01-06T04:04:11.387Z,27.03
2023-01-06T04:06:40.415Z,24.60
2023-01-06T04:09:08.084Z,25.33
2023-01-06T04:11:53.435Z,25.67
2023-01-06T04:14:21.146Z,24.37
2023-01-06T04:16:48.790Z,24.37
2023-01-06T04:19:16.522Z,25.13
2023-01-06T04:21:45.613Z,26.47
2023-01-06T04:24:13.461Z,23.77
2023-01-06T04:26:41.121Z,23.60
2023-01-06T04:29:08.849Z,25.93
2023-01-06T04:31:36.609Z,24.07
2023-01-06T04:34:04.380Z,26.23
2023-01-06T04:36:32.161Z,23.37
2023-01-06T04:39:01.791Z,22.03
2023-01-06T04:41:29.528Z,22.40
2023-01-06T04:43:58.156Z,25.50
2023-01-06T04:46:25.943Z,22.40
2023-01-06T04:48:53.681Z,23.17
2023-01-06T04:51:21.327Z,20.37
2023-01-06T04:53:48.989Z,22.37
2023-01-06T04:56:18.050Z,21.03
2023-01-06T04:58:45.736Z,22.03
2023-01-06T05:01:14.062Z,20.87
2023-01-06T05:03:42.565Z,20.43
2023-01-06T05:06:21.669Z,21.33
2023-01-06T05:08:49.685Z,19.10
2023-01-06T05:11:20.362Z,20.37
2023-01-06T05:13:48.178Z,18.20
2023-01-06T05:16:17.583Z,18.00
2023-01-06T05:18:45.340Z,17.47
2023-01-06T05:21:13.130Z,17.70
2023-01-06T05:23:41.461Z,17.70
2023-01-06T05:26:10.395Z,17.47
2023-01-06T05:28:39.735Z,18.53
2023-01-06T05:31:07.498Z,18.97
2023-01-06T05:33:35.570Z,17.87
2023-01-06T05:36:05.084Z,18.53
2023-01-06T05:38:34.259Z,18.57
2023-01-06T05:41:02.325Z,17.77
2023-01-06T05:43:30.203Z,16.53
2023-01-06T05:46:00.370Z,17.90
2023-01-06T05:48:28.936Z,16.20
2023-01-06T05:51:01.997Z,16.27
2023-01-06T05:53:32.380Z,17.63
2023-01-06T05:56:01.479Z,16.30
2023-01-06T05:58:29.243Z,15.33
2023-01-06T06:00:56.963Z,16.33
2023-01-06T06:03:26.397Z,15.73
2023-01-06T06:05:54.441Z,16.67
2023-01-06T06:08:22.854Z,14.10
2023-01-06T06:10:50.543Z,15.40
2023-01-06T06:13:18.262Z,16.07
2023-01-06T06:15:45.895Z,14.30
2023-01-06T06:18:13.534Z,13.03
2023-01-06T06:20:42.617Z,14.40
2023-01-06T06:23:10.459Z,14.10
2023-01-06T06:25:38.213Z,13.70
2023-01-06T06:28:06.055Z,13.37
2023-01-06T06:30:33.728Z,12.90
2023-01-06T06:33:01.776Z,14.20
2023-01-06T06:35:29.448Z,12.73
2023-01-06T06:37:58.531Z,12.50
2023-01-06T06:40:26.826Z,13.07
2023-01-06T06:42:54.500Z,11.67
2023-01-06T06:45:22.236Z,11.23
2023-01-06T06:47:49.964Z,11.87
2023-01-06T06:50:17.671Z,11.17
2023-01-06T06:52:45.394Z,10.27
2023-01-06T06:55:14.606Z,11.13
2023-01-06T06:57:42.325Z,10.17
2023-01-06T07:00:11.693Z,10.03
2023-01-06T07:02:40.485Z,8.83
2023-01-06T07:05:08.719Z,8.50
2023-01-06T07:07:36.447Z,10.13
2023-01-06T07:10:04.315Z,9.13
2023-01-06T07:12:33.885Z,8.73
2023-01-06T07:15:01.650Z,10.13
2023-01-06T07:17:29.424Z,9.63
2023-01-06T07:19:57.173Z,10.27
2023-01-06T07:22:24.812Z,9.53
2023-01-06T07:24:52.470Z,8.97
2023-01-06T07:27:20.197Z,8.57
2023-01-06T07:29:49.264Z,9.47
2023-01-06T07:32:16.955Z,9.37
2023-01-06T07:34:44.641Z,8.93
2023-01-06T07:37:12.348Z,7.83
2023-01-06T07:39:40.042Z,8.40
2023-01-06T07:42:09.296Z,8.23
2023-01-06T07:44:37.059Z,7.70
2023-01-06T07:47:06.553Z,8.53
2023-01-06T07:49:34.215Z,7.27
2023-01-06T07:52:01.912Z,7.47
2023-01-06T07:54:29.598Z,8.63
2023-01-06T07:56:57.286Z,8.27
2023-01-06T07:59:24.992Z,8.17
2023-01-06T08:01:52.788Z,7.63
2023-01-06T08:04:21.973Z,8.47
2023-01-06T08:06:49.652Z,7.63
2023-01-06T08:09:17.400Z,8.03
2023-01-06T08:11:45.080Z,7.63
2023-01-06T08:14:13.266Z,8.00
2023-01-06T08:16:41.461Z,8.77
2023-01-06T08:19:09.242Z,8.30
2023-01-06T08:21:38.300Z,7.53
2023-01-06T08:24:06.677Z,7.43
2023-01-06T08:26:34.399Z,7.97
2023-01-06T08:29:02.363Z,7.77
2023-01-06T08:31:30.123Z,8.63
2023-01-06T08:33:57.833Z,8.20
2023-01-06T08:36:25.902Z,8.67
2023-01-06T08:38:55.359Z,7.83
2023-01-06T08:41:23.070Z,7.90
2023-01-06T08:43:50.909Z,9.20
2023-01-06T08:46:21.650Z,8.30
2023-01-06T08:48:49.552Z,9.07
2023-01-06T08:51:19.007Z,8.80
2023-01-06T08:53:47.548Z,8.97
2023-01-06T08:56:19.084Z,10.13
2023-01-06T08:58:47.029Z,8.87
2023-01-06T09:01:18.680Z,8.27
2023-01-06T09:03:46.482Z,10.17
2023-01-06T09:06:14.589Z,8.50
2023-01-06T09:08:43.604Z,9.83
2023-01-06T09:11:12.582Z,13.50
2023-01-06T09:13:41.841Z,12.27
2023-01-06T09:16:10.516Z,12.30
2023-01-06T09:18:38.467Z,12.40
2023-01-06T09:21:07.269Z,12.90
2023-01-06T09:23:35.035Z,11.50
2023-01-06T09:26:04.316Z,10.77
2023-01-06T09:28:33.144Z,10.47
2023-01-06T09:31:02.354Z,11.17
2023-01-06T09:33:30.104Z,11.37
2023-01-06T09:35:58.071Z,11.67
2023-01-06T09:38:26.241Z,11.57
2023-01-06T09:41:05.929Z,10.80
2023-01-06T09:43:41.992Z,12.57
2023-01-06T09:46:12.880Z,10.53
2023-01-06T09:48:44.140Z,11.57
2023-01-06T09:51:15.362Z,10.97
2023-01-06T09:53:46.007Z,9.97
2023-01-06T09:56:16.200Z,11.37
2023-01-06T09:58:49.202Z,9.33
2023-01-06T10:01:20.742Z,9.60
2023-01-06T10:03:49.136Z,9.33
2023-01-06T10:06:30.720Z,9.77
2023-01-06T10:09:07.372Z,9.40
2023-01-06T10:11:42.781Z,8.83
2023-01-06T10:14:16.012Z,10.07
2023-01-06T10:16:58.798Z,10.20
2023-01-06T10:19:31.082Z,9.37
2023-01-06T10:22:04.077Z,9.40
2023-01-06T10:24:47.701Z,10.23
2023-01-06T10:27:22.664Z,9.43
2023-01-06T10:29:52.006Z,10.77
2023-01-06T10:32:22.875Z,10.30
2023-01-06T10:34:51.770Z,11.43
2023-01-06T10:37:23.413Z,12.77
2023-01-06T10:39:56.732Z,11.73
2023-01-06T10:42:48.278Z,11.57
2023-01-06T10:45:17.491Z,12.10
2023-01-06T10:47:46.700Z,11.00
2023-01-06T10:50:15.502Z,10.90
2023-01-06T10:52:43.582Z,10.40
2023-01-06T10:55:22.179Z,11.20
2023-01-06T10:57:50.697Z,11.90
2023-01-06T11:00:22.273Z,10.13
2023-01-06T11:02:52.841Z,10.70
2023-01-06T11:05:22.640Z,10.17
2023-01-06T11:07:54.642Z,11.33
2023-01-06T11:10:28.498Z,11.97
2023-01-06T11:12:57.143Z,12.23
2023-01-06T11:15:29.461Z,11.10
2023-01-06T11:17:58.570Z,13.80
2023-01-06T11:20:32.149Z,11.53
2023-01-06T11:23:22.724Z,11.53
2023-01-06T11:26:03.083Z,10.93
2023-01-06T11:28:31.262Z,12.13
2023-01-06T11:31:02.569Z,13.03
2023-01-06T11:33:32.857Z,11.93
2023-01-06T11:36:09.248Z,11.47
2023-01-06T11:38:42.465Z,11.77
2023-01-06T11:41:11.603Z,12.77
2023-01-06T11:43:40.242Z,12.20
2023-01-06T11:46:10.193Z,11.43
2023-01-06T11:48:43.997Z,10.50
2023-01-06T11:51:11.891Z,11.07
2023-01-06T11:53:42.106Z,10.60
2023-01-06T11:56:19.147Z,10.47
2023-01-06T11:58:52.876Z,10.23
2023-01-06T12:01:28.726Z,10.73
2023-01-06T12:04:07.495Z,10.40
2023-01-06T12:06:37.273Z,10.47
2023-01-06T12:09:10.348Z,9.87
2023-01-06T12:11:43.740Z,11.80
2023-01-06T12:14:27.366Z,12.13
2023-01-06T12:17:04.421Z,12.23
2023-01-06T12:19:37.036Z,12.63
2023-01-06T12:22:04.956Z,12.67
2023-01-06T12:24:33.712Z,11.13
2023-01-06T12:27:02.785Z,13.00
2023-01-06T12:29:31.521Z,11.77
2023-01-06T12:32:05.870Z,11.90
2023-01-06T12:34:37.671Z,11.20
2023-01-06T12:37:16.811Z,12.70
2023-01-06T12:39:50.741Z,10.77
2023-01-06T12:42:24.594Z,12.93
2023-01-06T12:44:54.626Z,13.10
2023-01-06T12:47:26.502Z,14.73
2023-01-06T12:49:59.768Z,13.40
2023-01-06T12:52:32.862Z,13.47
2023-01-06T12:55:01.201Z,12.90
2023-01-06T12:57:49.367Z,12.93
2023-01-06T13:00:27.834Z,14.80
2023-01-06T13:03:04.006Z,12.87
2023-01-06T13:05:47.297Z,11.70
2023-01-06T13:08:25.964Z,14.90
2023-01-06T13:10:58.079Z,14.10
2023-01-06T13:13:57.406Z,14.63
2023-01-06T13:16:29.287Z,13.03
2023-01-06T13:19:03.066Z,12.43
2023-01-06T13:21:33.462Z,14.17
2023-01-06T13:24:11.187Z,15.87
2023-01-06T13:26:54.729Z,13.83
2023-01-06T13:29:35.130Z,15.10
2023-01-06T13:32:27.781Z,14.53
2023-01-06T13:35:25.847Z,15.57
2023-01-06T13:38:01.517Z,13.17
2023-01-06T13:40:30.247Z,14.83
2023-01-06T13:43:02.087Z,16.47
2023-01-06T13:45:31.609Z,16.17
2023-01-06T13:48:00.668Z,15.63
2023-01-06T13:50:29.720Z,14.47
2023-01-06T13:52:59.255Z,15.27
2023-01-06T13:55:29.741Z,16.17
2023-01-06T13:57:58.901Z,15.97
2023-01-06T14:00:28.165Z,14.80
2023-01-06T14:03:24.145Z,16.10
2023-01-06T14:05:59.525Z,15.67
2023-01-06T14:08:35.709Z,16.97
2023-01-06T14:11:06.141Z,15.73
2023-01-06T14:13:37.493Z,15.77
2023-01-06T14:16:08.189Z,17.53
2023-01-06T14:18:39.203Z,14.37
2023-01-06T14:21:08.504Z,15.27
2023-01-06T14:23:37.748Z,13.23
2023-01-06T14:26:05.753Z,13.63
2023-01-06T14:28:34.461Z,14.23
2023-01-06T14:31:48.524Z,15.13
2023-01-06T14:34:19.797Z,13.57
2023-01-06T14:36:50.747Z,14.27
2023-01-06T14:39:25.589Z,13.23
2023-01-06T14:41:58.209Z,13.27
2023-01-06T14:44:30.280Z,12.53
2023-01-06T14:47:01.900Z,12.80
2023-01-06T14:49:34.302Z,12.10
2023-01-06T14:52:09.468Z,12.13
2023-01-06T14:54:40.447Z,13.90
2023-01-06T14:57:24.726Z,12.47
2023-01-06T15:00:06.794Z,12.37
2023-01-06T15:02:34.719Z,12.40
2023-01-06T15:05:02.699Z,14.13
2023-01-06T15:07:30.505Z,12.00
2023-01-06T15:10:21.144Z,13.13
2023-01-06T15:12:56.709Z,12.03
2023-01-06T15:15:26.536Z,13.80
2023-01-06T15:17:55.686Z,12.57
2023-01-06T15:20:28.429Z,14.20
2023-01-06T15:22:56.157Z,14.90
2023-01-06T15:25:26.571Z,13.07
2023-01-06T15:27:55.513Z,13.27
2023-01-06T15:30:25.194Z,13.43
2023-01-06T15:32:53.587Z,14.87
2023-01-06T15:35:24.189Z,14.77
2023-01-06T15:37:57.195Z,14.93
2023-01-06T15:40:26.493Z,13.90
2023-01-06T15:42:54.357Z,15.43
2023-01-06T15:45:28.280Z,16.13
2023-01-06T15:47:58.384Z,16.30
2023-01-06T15:50:27.492Z,18.30
2023-01-06T15:52:56.432Z,19.17
2023-01-06T15:55:31.853Z,18.90
2023-01-06T15:58:01.947Z,16.40
2023-01-06T16:00:30.827Z,15.67
2023-01-06T16:02:59.292Z,14.57
2023-01-06T16:05:41.198Z,16.97
2023-01-06T16:08:18.116Z,16.70
2023-01-06T16:10:47.302Z,16.60
2023-01-06T16:13:22.452Z,16.70
2023-01-06T16:15:51.839Z,18.60
2023-01-06T16:18:27.465Z,20.70
2023-01-06T16:20:57.183Z,20.27
2023-01-06T16:23:29.658Z,18.83
2023-01-06T16:26:07.701Z,20.13
2023-01-06T16:28:35.955Z,19.87
2023-01-06T16:31:09.009Z,20.23
2023-01-06T16:33:42.425Z,21.00
2023-01-06T16:36:13.510Z,22.30
2023-01-06T16:38:41.247Z,18.07
2023-01-06T16:41:15.701Z,20.80
2023-01-06T16:43:43.463Z,19.03
2023-01-06T16:46:16.350Z,17.70
2023-01-06T16:48:44.137Z,15.80
2023-01-06T16:51:18.504Z,17.80
2023-01-06T16:53:46.973Z,18.33
2023-01-06T16:56:23.010Z,17.07
2023-01-06T16:58:51.137Z,17.73
2023-01-06T17:01:20.439Z,18.07
2023-01-06T17:03:53.346Z,18.43
2023-01-06T17:06:22.370Z,18.40
2023-01-06T17:08:50.754Z,17.23
2023-01-06T17:11:20.197Z,18.90
2023-01-06T17:13:53.173Z,20.67
2023-01-06T17:16:26.794Z,18.97
2023-01-06T17:18:56.274Z,20.93
2023-01-06T17:21:27.189Z,21.33
2023-01-06T17:23:57.933Z,23.13
2023-01-06T17:26:25.625Z,19.63
2023-01-06T17:28:55.365Z,19.47
2023-01-06T17:31:31.347Z,22.70
2023-01-06T17:34:00.464Z,21.90
2023-01-06T17:36:32.601Z,23.67
2023-01-06T17:39:00.326Z,22.17
2023-01-06T17:41:29.266Z,22.77
2023-01-06T17:43:58.328Z,22.30
2023-01-06T17:46:30.293Z,21.17
2023-01-06T17:49:03.228Z,19.60
2023-01-06T17:51:30.868Z,20.40
2023-01-06T17:54:16.973Z,17.07
2023-01-06T17:56:44.623Z,18.13
2023-01-06T17:59:18.579Z,17.50
2023-01-06T18:01:46.305Z,17.47
2023-01-06T18:04:16.532Z,17.80
2023-01-06T18:06:50.560Z,17.53
2023-01-06T18:09:21.186Z,18.03
2023-01-06T18:11:50.012Z,17.90
2023-01-06T18:14:30.622Z,16.40
2023-01-06T18:16:59.901Z,17.00
2023-01-06T18:19:38.724Z,20.00
2023-01-06T18:22:14.343Z,19.97
2023-01-06T18:24:42.117Z,21.30
2023-01-06T18:27:15.595Z,19.63
2023-01-06T18:29:45.643Z,19.30
2023-01-06T18:32:29.072Z,18.83
2023-01-06T18:34:58.025Z,17.50
2023-01-06T18:37:27.611Z,18.50
2023-01-06T18:39:59.016Z,18.97
2023-01-06T18:42:29.149Z,18.33
2023-01-06T18:45:18.205Z,20.17
2023-01-06T18:47:48.814Z,21.30
2023-01-06T18:50:33.050Z,25.80
2023-01-06T18:53:02.350Z,25.43
2023-01-06T18:55:37.277Z,27.33
2023-01-06T18:58:15.787Z,27.20
2023-01-06T19:00:47.629Z,25.93
2023-01-06T19:03:31.504Z,25.73
2023-01-06T19:06:07.785Z,24.97
2023-01-06T19:08:36.426Z,24.07
2023-01-06T19:11:04.491Z,23.97
2023-01-06T19:13:33.475Z,24.30
2023-01-06T19:16:09.171Z,22.93
2023-01-06T19:18:37.259Z,23.90
2023-01-06T19:21:08.369Z,22.13
2023-01-06T19:23:36.343Z,20.50
2023-01-06T19:26:06.199Z,20.13
2023-01-06T19:28:35.172Z,18.70
2023-01-06T19:31:05.154Z,18.90
2023-01-06T19:33:41.123Z,17.73
2023-01-06T19:36:41.803Z,17.70
2023-01-06T19:39:27.549Z,17.13
2023-01-06T19:41:56.272Z,16.43
2023-01-06T19:44:30.777Z,17.13
2023-01-06T19:47:00.869Z,16.73
2023-01-06T19:49:37.062Z,19.67
2023-01-06T19:52:18.403Z,18.37
2023-01-06T19:54:46.570Z,19.43
2023-01-06T19:57:24.641Z,20.17
2023-01-06T19:59:52.393Z,18.10
2023-01-06T20:02:28.439Z,15.73
2023-01-06T20:04:56.249Z,18.97
2023-01-06T20:07:24.174Z,18.37
2023-01-06T20:09:51.832Z,18.10
2023-01-06T20:12:19.523Z,19.57
2023-01-06T20:14:47.222Z,19.43
2023-01-06T20:17:16.556Z,17.57
2023-01-06T20:19:45.632Z,19.03
2023-01-06T20:22:13.569Z,18.90
2023-01-06T20:24:41.265Z,19.13
2023-01-06T20:27:08.956Z,19.60
2023-01-06T20:29:36.678Z,18.40
2023-01-06T20:32:04.475Z,19.10
2023-01-06T20:34:32.212Z,20.60
2023-01-06T20:37:01.315Z,20.37
2023-01-06T20:39:29.639Z,18.60
2023-01-06T20:41:57.573Z,19.57
2023-01-06T20:44:25.281Z,21.10
2023-01-06T20:46:52.979Z,20.60
2023-01-06T20:49:20.643Z,21.13
2023-01-06T20:51:48.380Z,21.53
2023-01-06T20:54:17.427Z,20.40
2023-01-06T20:56:45.118Z,21.47
2023-01-06T20:59:13.066Z,21.17
2023-01-06T21:01:41.089Z,21.60
2023-01-06T21:04:08.865Z,21.53
2023-01-06T21:06:36.556Z,20.53
2023-01-06T21:09:04.512Z,19.43
2023-01-06T21:11:33.601Z,20.33
2023-01-06T21:14:01.285Z,19.87
2023-01-06T21:16:28.998Z,20.23
2023-01-06T21:18:57.421Z,19.63
2023-01-06T21:21:25.091Z,19.67
2023-01-06T21:23:52.804Z,20.53
2023-01-06T21:26:20.505Z,23.33
2023-01-06T21:28:49.565Z,22.60
2023-01-06T21:31:17.277Z,20.87
2023-01-06T21:33:44.951Z,20.63
2023-01-06T21:36:12.691Z,21.20
2023-01-06T21:38:40.388Z,20.77
2023-01-06T21:41:22.023Z,21.53
2023-01-06T21:43:51.067Z,20.87
2023-01-06T21:46:18.840Z,21.70
2023-01-06T21:48:46.526Z,21.17
2023-01-06T21:51:14.256Z,22.50
2023-01-06T21:53:42.186Z,19.97
2023-01-06T21:56:09.971Z,21.03
2023-01-06T21:58:37.865Z,19.97
2023-01-06T22:01:07.374Z,20.57
2023-01-06T22:03:35.316Z,22.27
2023-01-06T22:06:04.104Z,21.47
2023-01-06T22:08:32.502Z,23.23
2023-01-06T22:11:00.196Z,24.13
2023-01-06T22:13:28.171Z,21.47
2023-01-06T22:15:56.446Z,21.07
2023-01-06T22:18:25.471Z,20.20
2023-01-06T22:20:53.492Z,22.73
2023-01-06T22:23:22.199Z,20.83
2023-01-06T22:25:51.322Z,20.93
2023-01-06T22:28:19.084Z,20.10
2023-01-06T22:30:46.828Z,22.17
2023-01-06T22:33:15.492Z,21.53
2023-01-06T22:35:45.878Z,20.90
2023-01-06T22:38:13.570Z,22.20
2023-01-06T22:40:41.244Z,23.57
2023-01-06T22:43:09.103Z,22.70
2023-01-06T22:45:36.830Z,21.90
2023-01-06T22:48:04.915Z,25.13
2023-01-06T22:50:32.562Z,25.50
2023-01-06T22:53:01.624Z,22.40
2023-01-06T22:55:29.365Z,22.57
2023-01-06T22:57:57.025Z,23.17
2023-01-06T23:00:24.792Z,23.47
2023-01-06T23:02:52.582Z,23.60
2023-01-06T23:05:20.391Z,21.43
2023-01-06T23:07:48.054Z,22.47
2023-01-06T23:10:17.081Z,21.37
2023-01-06T23:12:44.907Z,25.10
2023-01-06T23:15:12.950Z,22.30
2023-01-06T23:17:40.631Z,23.20
2023-01-06T23:20:09.137Z,22.43
2023-01-06T23:22:37.275Z,24.43
2023-01-06T23:25:05.538Z,21.67
2023-01-06T23:27:34.572Z,21.87
2023-01-06T23:30:02.233Z,22.23
2023-01-06T23:32:29.878Z,22.47
2023-01-06T23:34:57.547Z,21.97
2023-01-06T23:37:25.177Z,23.10
2023-01-06T23:39:53.399Z,22.00
2023-01-06T23:42:21.121Z,20.97
2023-01-06T23:44:50.148Z,21.80
2023-01-06T23:47:17.975Z,23.03
2023-01-06T23:49:48.147Z,22.90
2023-01-06T23:52:15.866Z,22.07
2023-01-06T23:54:43.526Z,22.03
2023-01-06T23:57:11.247Z,22.53
2023-01-06T23:59:38.928Z,22.27
